Time;durP1;ratioP1;P1;durP2;ratioP2;P2;SDS_P1;SDS_P2;PMS_P1;PMS_P2;Temp;Humidity;BMP_temperature;BMP_pressure;BME280_temperature;BME280_humidity;BME280_pressure;Samples;Min_cycle;Max_cycle;Signal;HPM_P1;HPM_P2
2023/05/27 00:00:06;;;;;;;3.03;1.05;;;13.40;99.90;;;;;;4411347;32;20065;-74
2023/05/27 00:02:31;;;;;;;0.65;0.65;;;13.40;99.90;;;;;;4411306;32;20085;-75
2023/05/27 00:04:57;;;;;;;0.30;0.30;;;13.40;99.90;;;;;;4410497;32;20082;-76
2023/05/27 00:07:22;;;;;;;0.40;0.40;;;13.30;99.90;;;;;;4410305;32;20165;-73
2023/05/27 00:09:48;;;;;;;0.52;0.40;;;13.20;99.90;;;;;;4413863;32;20545;-75
2023/05/27 00:12:13;;;;;;;6.05;1.45;;;13.20;99.90;;;;;;4411896;32;20077;-74
2023/05/27 00:14:39;;;;;;;6.22;0.52;;;13.20;99.90;;;;;;4411805;32;20094;-75
2023/05/27 00:17:04;;;;;;;0.55;0.55;;;13.20;99.90;;;;;;4411501;32;20077;-76
2023/05/27 00:19:30;;;;;;;4.35;0.75;;;13.30;99.90;;;;;;4414412;32;20141;-72
2023/05/27 00:21:56;;;;;;;2.37;0.98;;;13.20;99.90;;;;;;4413069;32;20856;-73
2023/05/27 00:24:22;;;;;;;2.12;1.20;;;13.20;99.90;;;;;;4414029;32;20073;-75
2023/05/27 00:26:48;;;;;;;0.43;0.43;;;13.10;99.90;;;;;;4414358;32;20090;-74
2023/05/27 00:29:13;;;;;;;0.40;0.40;;;13.00;99.90;;;;;;4417110;32;20082;-74
2023/05/27 00:31:39;;;;;;;0.30;0.30;;;13.00;99.90;;;;;;4416200;32;20080;-75
2023/05/27 00:34:04;;;;;;;0.30;0.30;;;12.90;99.90;;;;;;4414010;32;20429;-74
2023/05/27 00:36:31;;;;;;;0.20;0.20;;;12.80;99.90;;;;;;4414535;32;20106;-73
2023/05/27 00:38:57;;;;;;;1.37;0.93;;;12.90;99.90;;;;;;4414438;32;20128;-74
2023/05/27 00:41:23;;;;;;;0.47;0.40;;;12.80;99.90;;;;;;4413789;32;20147;-75
2023/05/27 00:43:48;;;;;;;0.30;0.30;;;12.90;99.90;;;;;;4416670;32;20074;-74
2023/05/27 00:46:15;;;;;;;1.27;1.10;;;12.90;99.90;;;;;;4414582;32;20149;-73
2023/05/27 00:48:41;;;;;;;0.80;0.68;;;12.90;99.90;;;;;;4414195;32;20445;-74
2023/05/27 00:51:06;;;;;;;4.93;1.35;;;12.90;99.90;;;;;;4413818;32;20172;-75
2023/05/27 00:53:40;;;;;;;0.85;0.85;;;12.90;99.90;;;;;;4412903;32;20484;-74
2023/05/27 00:56:06;;;;;;;8.25;2.25;;;12.80;99.90;;;;;;4414229;32;20801;-74
2023/05/27 00:58:32;;;;;;;13.20;0.65;;;12.80;99.90;;;;;;4415013;32;20061;-75
2023/05/27 01:00:58;;;;;;;3.70;0.77;;;12.90;99.90;;;;;;4413588;32;20297;-74
2023/05/27 01:03:24;;;;;;;9.48;2.15;;;12.90;99.90;;;;;;4412890;32;20445;-74
2023/05/27 01:05:55;;;;;;;0.40;0.40;;;12.90;99.90;;;;;;4415343;32;20065;-74
2023/05/27 01:08:34;;;;;;;0.50;0.50;;;12.80;99.90;;;;;;4412935;32;20085;-75
2023/05/27 01:10:59;;;;;;;0.50;0.50;;;12.90;99.90;;;;;;4413829;32;20097;-74
2023/05/27 01:13:35;;;;;;;4.35;0.60;;;13.00;99.90;;;;;;4414986;32;20065;-75
2023/05/27 01:16:04;;;;;;;0.93;0.88;;;12.90;99.90;;;;;;4415218;32;20386;-74
2023/05/27 01:18:33;;;;;;;0.85;0.43;;;12.90;99.90;;;;;;4415046;32;20074;-74
2023/05/27 01:21:05;;;;;;;1.08;0.82;;;12.80;99.90;;;;;;4417243;32;20114;-74
2023/05/27 01:23:31;;;;;;;12.95;0.68;;;12.90;99.90;;;;;;4411680;32;21167;-76
2023/05/27 01:25:56;;;;;;;3.03;0.68;;;12.90;99.90;;;;;;4414238;32;20128;-75
2023/05/27 01:28:22;;;;;;;0.55;0.55;;;12.80;99.90;;;;;;4415307;32;20155;-73
2023/05/27 01:30:49;;;;;;;0.98;0.77;;;12.60;99.90;;;;;;4414561;32;20670;-74
2023/05/27 01:33:20;;;;;;;0.40;0.40;;;12.50;99.90;;;;;;4413661;32;20077;-73
2023/05/27 01:35:51;;;;;;;3.10;0.80;;;12.40;99.90;;;;;;4412731;32;20068;-75
2023/05/27 01:38:19;;;;;;;16.33;1.37;;;12.40;99.90;;;;;;4413749;32;20106;-75
2023/05/27 01:40:45;;;;;;;1.42;0.75;;;12.40;99.90;;;;;;4415357;32;20073;-74
2023/05/27 01:43:13;;;;;;;0.40;0.40;;;12.40;99.90;;;;;;4415481;32;20066;-73
2023/05/27 01:45:38;;;;;;;1.65;1.15;;;12.30;99.90;;;;;;4415558;32;20155;-74
2023/05/27 01:48:04;;;;;;;0.70;0.70;;;12.20;99.90;;;;;;4414742;32;20544;-74
2023/05/27 01:50:30;;;;;;;6.72;0.77;;;12.20;99.90;;;;;;4414762;32;20453;-73
2023/05/27 01:52:56;;;;;;;0.35;0.35;;;12.20;99.90;;;;;;4413908;32;20117;-75
2023/05/27 01:55:22;;;;;;;1.55;0.75;;;12.20;99.90;;;;;;4412513;32;20090;-72
2023/05/27 01:57:47;;;;;;;0.50;0.50;;;12.20;99.90;;;;;;4414265;32;20533;-74
2023/05/27 02:00:15;;;;;;;16.98;2.87;;;12.20;99.90;;;;;;4413864;32;20477;-72
2023/05/27 02:02:41;;;;;;;0.30;0.30;;;12.20;99.90;;;;;;4412997;32;20137;-73
2023/05/27 02:05:07;;;;;;;0.50;0.50;;;12.10;99.90;;;;;;4415178;32;20105;-75
2023/05/27 02:07:32;;;;;;;0.65;0.60;;;12.10;99.90;;;;;;4412723;32;20171;-72
2023/05/27 02:09:58;;;;;;;0.28;0.28;;;11.90;99.90;;;;;;4413216;32;20064;-72
2023/05/27 02:12:23;;;;;;;0.82;0.82;;;11.70;99.90;;;;;;4413720;32;20526;-72
2023/05/27 02:14:49;;;;;;;2.35;1.15;;;11.70;99.90;;;;;;4408831;32;20128;-73
2023/05/27 02:17:14;;;;;;;4.78;1.23;;;11.80;99.90;;;;;;4408511;32;20062;-73
2023/05/27 02:19:40;;;;;;;0.43;0.43;;;11.80;99.90;;;;;;4407381;32;20118;-73
2023/05/27 02:22:06;;;;;;;0.50;0.50;;;11.80;99.90;;;;;;4407141;32;20094;-73
2023/05/27 02:24:32;;;;;;;0.73;0.50;;;11.70;99.90;;;;;;4408990;32;20083;-73
2023/05/27 02:26:58;;;;;;;1.90;0.88;;;11.70;99.90;;;;;;4408043;32;20081;-72
2023/05/27 02:29:23;;;;;;;1.23;0.90;;;11.60;99.90;;;;;;4407822;32;20079;-74
2023/05/27 02:31:49;;;;;;;0.80;0.80;;;11.50;99.90;;;;;;4406960;32;20650;-73
2023/05/27 02:34:15;;;;;;;1.17;0.50;;;11.50;99.90;;;;;;4407458;32;20069;-73
2023/05/27 02:36:40;;;;;;;15.20;1.45;;;11.40;99.90;;;;;;4407037;32;20085;-73
2023/05/27 02:39:06;;;;;;;2.28;0.93;;;11.30;99.90;;;;;;4407353;32;20393;-72
2023/05/27 02:41:31;;;;;;;1.05;0.62;;;11.50;99.90;;;;;;4406655;32;20069;-75
2023/05/27 02:43:57;;;;;;;6.30;1.95;;;11.50;99.90;;;;;;4407028;32;20078;-74
2023/05/27 02:46:22;;;;;;;0.30;0.30;;;11.50;99.90;;;;;;4407068;32;20105;-74
2023/05/27 02:48:48;;;;;;;10.02;0.75;;;11.50;99.90;;;;;;4406953;32;20073;-74
2023/05/27 02:51:13;;;;;;;4.50;0.95;;;11.40;99.90;;;;;;4407793;32;20086;-74
2023/05/27 02:53:39;;;;;;;7.53;0.98;;;11.20;99.90;;;;;;4407692;32;20126;-73
2023/05/27 02:56:04;;;;;;;0.20;0.20;;;11.20;99.90;;;;;;4409269;32;21226;-74
2023/05/27 02:58:30;;;;;;;0.45;0.40;;;11.00;99.90;;;;;;4406815;32;20098;-74
2023/05/27 03:00:55;;;;;;;0.40;0.40;;;11.00;99.90;;;;;;4406575;32;20390;-75
2023/05/27 03:03:21;;;;;;;0.30;0.30;;;11.10;99.90;;;;;;4405915;32;20085;-75
2023/05/27 03:05:47;;;;;;;2.65;0.73;;;11.00;99.90;;;;;;4407398;32;20112;-75
2023/05/27 03:08:12;;;;;;;0.50;0.50;;;10.90;99.90;;;;;;4406822;32;20142;-75
2023/05/27 03:10:38;;;;;;;0.55;0.55;;;10.90;99.90;;;;;;4407864;32;20078;-74
2023/05/27 03:13:04;;;;;;;3.15;1.10;;;11.00;99.90;;;;;;4407358;32;20069;-74
2023/05/27 03:15:30;;;;;;;1.23;0.68;;;11.10;99.90;;;;;;4407788;32;20081;-74
2023/05/27 03:17:56;;;;;;;0.80;0.77;;;10.90;99.90;;;;;;4405068;32;20117;-74
2023/05/27 03:20:22;;;;;;;3.12;1.83;;;10.90;99.90;;;;;;4409689;32;20089;-72
2023/05/27 03:22:47;;;;;;;0.55;0.55;;;10.90;99.90;;;;;;4410585;32;20086;-73
2023/05/27 03:25:13;;;;;;;0.43;0.43;;;10.90;99.90;;;;;;4406094;32;20068;-74
2023/05/27 03:27:40;;;;;;;0.35;0.35;;;10.90;99.90;;;;;;4406511;32;20074;-72
2023/05/27 03:30:07;;;;;;;0.68;0.68;;;10.90;99.90;;;;;;4407803;32;20513;-74
2023/05/27 03:32:33;;;;;;;0.40;0.40;;;10.90;99.90;;;;;;4407810;32;20884;-75
2023/05/27 03:34:58;;;;;;;0.25;0.25;;;10.70;99.90;;;;;;4408463;32;20081;-76
2023/05/27 03:37:23;;;;;;;0.25;0.25;;;10.70;99.90;;;;;;4405180;32;20081;-74
2023/05/27 03:39:49;;;;;;;0.47;0.47;;;10.80;99.90;;;;;;4406099;32;20085;-75
2023/05/27 03:42:14;;;;;;;0.30;0.30;;;10.90;99.90;;;;;;4406662;32;20082;-74
2023/05/27 03:44:40;;;;;;;0.50;0.50;;;10.80;99.90;;;;;;4405227;32;20093;-76
2023/05/27 03:47:05;;;;;;;0.45;0.45;;;10.80;99.90;;;;;;4407156;32;20529;-75
2023/05/27 03:49:31;;;;;;;0.40;0.40;;;10.80;99.90;;;;;;4406811;32;20537;-74
2023/05/27 03:51:57;;;;;;;0.40;0.40;;;10.80;99.90;;;;;;4406509;32;21240;-74
2023/05/27 03:54:22;;;;;;;0.30;0.30;;;10.70;99.90;;;;;;4404572;32;20136;-75
2023/05/27 03:56:48;;;;;;;1.17;0.50;;;10.80;99.90;;;;;;4407736;32;20533;-75
2023/05/27 03:59:14;;;;;;;0.45;0.45;;;10.90;99.90;;;;;;4408499;32;20082;-76
2023/05/27 04:01:40;;;;;;;0.40;0.40;;;10.90;99.90;;;;;;4408293;32;20065;-75
2023/05/27 04:04:06;;;;;;;4.20;0.93;;;10.80;99.90;;;;;;4410675;32;20535;-76
2023/05/27 04:06:31;;;;;;;0.40;0.40;;;10.90;99.90;;;;;;4406974;32;20177;-75
2023/05/27 04:08:57;;;;;;;1.65;0.75;;;10.90;99.90;;;;;;4409073;32;20100;-74
2023/05/27 04:11:27;;;;;;;0.40;0.40;;;10.90;99.90;;;;;;4409057;32;20185;-74
2023/05/27 04:13:53;;;;;;;0.57;0.57;;;11.00;99.90;;;;;;4411854;32;20083;-74
2023/05/27 04:16:18;;;;;;;0.50;0.50;;;11.00;99.90;;;;;;4417561;32;20065;-73
2023/05/27 04:18:48;;;;;;;1.05;0.95;;;11.10;99.90;;;;;;4415241;32;20528;-73
2023/05/27 04:21:15;;;;;;;11.83;0.40;;;11.10;99.90;;;;;;4416918;32;20084;-72
2023/05/27 04:23:41;;;;;;;0.43;0.43;;;11.10;99.90;;;;;;4415739;32;20497;-73
2023/05/27 04:26:06;;;;;;;0.30;0.30;;;11.20;99.90;;;;;;4415938;32;20144;-73
2023/05/27 04:28:34;;;;;;;0.37;0.37;;;11.40;99.90;;;;;;4413853;32;20525;-73
2023/05/27 04:30:59;;;;;;;1.65;0.50;;;11.40;99.90;;;;;;4414696;32;20140;-74
2023/05/27 04:33:25;;;;;;;2.47;0.80;;;11.50;99.90;;;;;;4414690;32;20147;-74
2023/05/27 04:35:53;;;;;;;0.40;0.40;;;11.60;99.90;;;;;;4416069;32;20237;-72
2023/05/27 04:38:20;;;;;;;1.95;0.65;;;11.60;99.90;;;;;;4412754;32;20365;-73
2023/05/27 04:40:52;;;;;;;0.35;0.35;;;11.60;99.90;;;;;;4416523;32;20066;-74
2023/05/27 04:43:18;;;;;;;0.82;0.70;;;11.70;99.90;;;;;;4415835;32;20576;-74
2023/05/27 04:45:44;;;;;;;1.92;0.60;;;11.80;99.90;;;;;;4417440;32;20150;-72
2023/05/27 04:48:10;;;;;;;0.35;0.35;;;12.00;99.90;;;;;;4415795;32;20133;-74
2023/05/27 04:50:36;;;;;;;1.98;0.85;;;12.00;99.90;;;;;;4414506;32;20093;-74
2023/05/27 04:53:02;;;;;;;0.77;0.77;;;12.00;99.90;;;;;;4414647;32;20567;-76
2023/05/27 04:55:28;;;;;;;0.57;0.57;;;12.00;99.90;;;;;;4415006;32;20223;-74
2023/05/27 04:57:53;;;;;;;0.35;0.32;;;12.10;99.90;;;;;;4413130;32;20147;-74
2023/05/27 05:00:35;;;;;;;0.40;0.40;;;12.20;99.90;;;;;;4413976;32;20141;-75
2023/05/27 05:03:01;;;;;;;0.93;0.93;;;12.30;99.90;;;;;;4415235;32;20585;-75
2023/05/27 05:05:27;;;;;;;3.60;0.60;;;12.20;99.90;;;;;;4416581;32;20077;-74
2023/05/27 05:07:53;;;;;;;0.77;0.60;;;12.30;99.90;;;;;;4413115;32;20474;-74
2023/05/27 05:10:18;;;;;;;0.70;0.70;;;12.40;99.90;;;;;;4415241;32;20162;-74
2023/05/27 05:12:44;;;;;;;0.40;0.40;;;12.40;99.90;;;;;;4415383;32;20094;-75
2023/05/27 05:15:09;;;;;;;5.85;1.87;;;12.50;99.90;;;;;;4415148;32;20089;-73
2023/05/27 05:17:35;;;;;;;1.65;1.23;;;12.70;99.90;;;;;;4413616;32;20171;-73
2023/05/27 05:20:01;;;;;;;0.43;0.43;;;12.70;99.90;;;;;;4416193;32;20081;-74
2023/05/27 05:22:28;;;;;;;7.82;1.58;;;12.80;99.90;;;;;;4415163;32;20489;-74
2023/05/27 05:24:54;;;;;;;0.30;0.30;;;12.80;99.90;;;;;;4413725;32;20656;-74
2023/05/27 05:27:19;;;;;;;4.43;0.98;;;12.90;99.90;;;;;;4414405;32;20069;-75
2023/05/27 05:29:45;;;;;;;2.70;0.75;;;12.90;99.90;;;;;;4416093;32;20081;-75
2023/05/27 05:32:11;;;;;;;0.60;0.60;;;13.00;99.90;;;;;;4415229;32;20564;-74
2023/05/27 05:34:37;;;;;;;0.40;0.40;;;13.10;99.90;;;;;;4414463;32;20078;-73
2023/05/27 05:37:03;;;;;;;0.50;0.50;;;13.20;99.90;;;;;;4413384;32;20101;-73
2023/05/27 05:39:29;;;;;;;0.73;0.73;;;13.20;99.90;;;;;;4417213;32;20082;-73
2023/05/27 05:41:55;;;;;;;0.40;0.40;;;13.20;99.90;;;;;;4412884;32;20073;-73
2023/05/27 05:44:22;;;;;;;0.40;0.40;;;13.30;99.90;;;;;;4414361;32;20085;-73
2023/05/27 05:46:48;;;;;;;2.67;1.40;;;13.20;99.90;;;;;;4415986;32;20111;-74
2023/05/27 05:49:13;;;;;;;0.80;0.80;;;13.40;99.90;;;;;;4414900;32;20702;-73
2023/05/27 05:51:39;;;;;;;0.60;0.60;;;13.40;99.90;;;;;;4415871;32;20113;-73
2023/05/27 05:54:05;;;;;;;0.30;0.30;;;13.40;99.90;;;;;;4413165;32;20288;-73
2023/05/27 05:56:31;;;;;;;0.43;0.43;;;13.50;99.90;;;;;;4413937;32;20156;-73
2023/05/27 05:58:57;;;;;;;1.90;1.23;;;13.60;99.90;;;;;;4413602;32;20057;-73
2023/05/27 06:01:22;;;;;;;4.12;1.25;;;13.70;99.90;;;;;;4415508;32;20065;-72
2023/05/27 06:03:48;;;;;;;4.78;0.60;;;13.70;99.90;;;;;;4411960;32;20207;-73
2023/05/27 06:06:14;;;;;;;0.30;0.30;;;13.90;99.90;;;;;;4414732;32;20125;-73
2023/05/27 06:08:40;;;;;;;1.17;0.60;;;14.00;99.90;;;;;;4412218;32;20074;-73
2023/05/27 06:11:06;;;;;;;5.47;0.95;;;14.00;99.90;;;;;;4412871;32;20127;-72
2023/05/27 06:13:31;;;;;;;0.90;0.57;;;14.10;99.90;;;;;;4413155;32;20101;-73
2023/05/27 06:15:57;;;;;;;0.30;0.30;;;14.20;99.90;;;;;;4413042;32;20117;-73
2023/05/27 06:18:22;;;;;;;2.67;0.40;;;14.30;99.90;;;;;;4415518;32;20081;-74
2023/05/27 06:20:48;;;;;;;2.72;0.95;;;14.40;99.90;;;;;;4415847;32;20109;-73
2023/05/27 06:23:13;;;;;;;0.30;0.30;;;14.50;99.90;;;;;;4412613;32;20092;-75
2023/05/27 06:25:39;;;;;;;0.37;0.37;;;14.50;99.90;;;;;;4412389;32;20601;-74
2023/05/27 06:28:05;;;;;;;24.90;0.50;;;14.50;99.90;;;;;;4415421;32;20564;-72
2023/05/27 06:30:32;;;;;;;16.37;0.88;;;14.60;99.90;;;;;;4413774;32;20094;-73
2023/05/27 06:32:57;;;;;;;0.30;0.30;;;14.70;99.90;;;;;;4415109;32;20065;-74
2023/05/27 06:35:23;;;;;;;0.30;0.30;;;14.70;99.90;;;;;;4412604;32;20493;-73
2023/05/27 06:37:48;;;;;;;2.67;1.10;;;14.80;99.90;;;;;;4413410;32;20070;-74
2023/05/27 06:40:14;;;;;;;0.52;0.37;;;14.80;99.90;;;;;;4415647;32;20123;-74
2023/05/27 06:42:39;;;;;;;0.47;0.47;;;14.80;99.90;;;;;;4413466;32;20081;-73
2023/05/27 06:45:06;;;;;;;0.20;0.20;;;14.90;99.90;;;;;;4413770;32;20572;-73
2023/05/27 06:47:31;;;;;;;0.30;0.30;;;15.10;99.90;;;;;;4413315;32;20124;-72
2023/05/27 06:49:56;;;;;;;0.30;0.30;;;15.10;99.90;;;;;;4412113;32;20134;-72
2023/05/27 06:52:22;;;;;;;0.37;0.37;;;15.20;99.90;;;;;;4409841;32;20069;-74
2023/05/27 06:54:47;;;;;;;0.40;0.40;;;15.20;99.90;;;;;;4409954;32;20171;-74
2023/05/27 06:57:13;;;;;;;0.30;0.30;;;15.20;99.90;;;;;;4414181;32;20094;-75
2023/05/27 06:59:39;;;;;;;0.50;0.50;;;15.30;99.90;;;;;;4414532;32;20127;-73
2023/05/27 07:02:06;;;;;;;0.43;0.43;;;15.30;99.90;;;;;;4413648;32;20078;-74
2023/05/27 07:04:31;;;;;;;1.95;1.00;;;15.30;99.90;;;;;;4410341;32;20073;-74
2023/05/27 07:06:57;;;;;;;0.20;0.20;;;15.30;99.50;;;;;;4412465;32;20082;-75
2023/05/27 07:09:22;;;;;;;1.98;1.20;;;15.40;99.70;;;;;;4410071;32;20069;-75
2023/05/27 07:11:48;;;;;;;0.25;0.25;;;15.50;99.90;;;;;;4408871;32;20494;-74
2023/05/27 07:14:13;;;;;;;0.45;0.45;;;15.60;99.30;;;;;;4412177;32;20058;-75
2023/05/27 07:16:39;;;;;;;0.28;0.28;;;15.70;97.80;;;;;;4414207;32;20076;-74
2023/05/27 07:19:05;;;;;;;0.30;0.30;;;15.70;98.10;;;;;;4410169;32;20082;-71
2023/05/27 07:21:30;;;;;;;0.82;0.40;;;15.80;98.10;;;;;;4411138;32;20080;-77
2023/05/27 07:23:58;;;;;;;0.35;0.35;;;15.90;97.60;;;;;;4410834;32;20106;-74
2023/05/27 07:26:25;;;;;;;0.73;0.60;;;15.90;96.00;;;;;;4413418;32;20059;-74
2023/05/27 07:28:51;;;;;;;0.40;0.40;;;16.00;96.30;;;;;;4412110;32;20088;-74
2023/05/27 07:31:16;;;;;;;0.30;0.30;;;16.10;96.50;;;;;;4416248;32;20986;-75
2023/05/27 07:33:42;;;;;;;0.20;0.20;;;16.20;95.60;;;;;;4413011;32;20093;-75
2023/05/27 07:36:07;;;;;;;0.88;0.32;;;16.40;94.90;;;;;;4410908;32;20066;-73
2023/05/27 07:38:33;;;;;;;9.13;0.93;;;16.60;94.00;;;;;;4412141;32;20122;-75
2023/05/27 07:40:58;;;;;;;0.30;0.30;;;16.70;93.10;;;;;;4413911;32;20085;-74
2023/05/27 07:43:24;;;;;;;0.75;0.75;;;16.80;92.20;;;;;;4414243;32;20090;-75
2023/05/27 07:45:50;;;;;;;0.20;0.20;;;16.90;91.50;;;;;;4409916;32;20152;-74
2023/05/27 07:48:15;;;;;;;0.40;0.40;;;16.90;90.60;;;;;;4413908;32;20093;-75
2023/05/27 07:50:40;;;;;;;0.20;0.20;;;16.90;90.80;;;;;;4412996;32;20538;-76
2023/05/27 07:53:06;;;;;;;0.30;0.30;;;17.10;90.20;;;;;;4411019;32;20142;-74
2023/05/27 07:55:31;;;;;;;0.30;0.30;;;17.30;89.70;;;;;;4412767;32;20074;-74
2023/05/27 07:57:57;;;;;;;0.20;0.20;;;17.40;89.50;;;;;;4410190;32;20523;-75
2023/05/27 08:00:22;;;;;;;0.47;0.47;;;17.50;88.00;;;;;;4413115;32;20070;-76
2023/05/27 08:02:48;;;;;;;0.30;0.30;;;17.60;87.50;;;;;;4413648;32;20073;-76
2023/05/27 08:05:13;;;;;;;0.55;0.50;;;17.50;88.60;;;;;;4415066;32;20160;-74
2023/05/27 08:07:39;;;;;;;0.30;0.30;;;17.60;88.70;;;;;;4409305;32;20092;-74
2023/05/27 08:10:06;;;;;;;0.50;0.50;;;17.70;86.70;;;;;;4411433;32;20112;-73
2023/05/27 08:12:32;;;;;;;0.40;0.40;;;17.80;86.00;;;;;;4414357;32;20111;-74
2023/05/27 08:14:57;;;;;;;0.30;0.30;;;17.90;83.20;;;;;;4411601;32;20086;-74
2023/05/27 08:17:23;;;;;;;0.25;0.25;;;17.90;82.80;;;;;;4412704;32;20094;-74
2023/05/27 08:19:48;;;;;;;0.22;0.22;;;17.70;80.70;;;;;;4412523;32;20123;-74
2023/05/27 08:22:14;;;;;;;0.20;0.20;;;17.80;81.80;;;;;;4411538;32;20623;-74
2023/05/27 08:24:39;;;;;;;0.40;0.40;;;17.80;84.20;;;;;;4414679;32;20122;-74
2023/05/27 08:27:06;;;;;;;0.40;0.40;;;18.00;83.90;;;;;;4412161;32;20137;-74
2023/05/27 08:29:33;;;;;;;0.35;0.35;;;18.10;83.50;;;;;;4414715;32;20111;-75
2023/05/27 08:31:58;;;;;;;0.30;0.30;;;18.30;83.00;;;;;;4410302;32;20616;-75
2023/05/27 08:34:25;;;;;;;0.30;0.30;;;18.30;83.10;;;;;;4415381;32;20089;-75
2023/05/27 08:36:51;;;;;;;0.20;0.20;;;18.40;82.20;;;;;;4410628;32;20563;-74
2023/05/27 08:39:17;;;;;;;0.40;0.40;;;18.40;80.90;;;;;;4409870;32;20108;-75
2023/05/27 08:41:42;;;;;;;0.30;0.30;;;18.50;81.60;;;;;;4414244;32;20082;-75
2023/05/27 08:44:11;;;;;;;0.30;0.30;;;18.50;82.20;;;;;;4414918;32;20592;-74
2023/05/27 08:46:37;;;;;;;0.30;0.30;;;18.40;79.90;;;;;;4402863;32;20070;-74
2023/05/27 08:49:02;;;;;;;0.20;0.20;;;18.30;79.20;;;;;;4396455;32;21136;-74
2023/05/27 08:51:28;;;;;;;0.40;0.40;;;18.10;79.00;;;;;;4398125;32;20110;-74
2023/05/27 08:53:54;;;;;;;0.20;0.20;;;17.90;80.50;;;;;;4401021;32;20086;-77
2023/05/27 08:56:21;;;;;;;0.30;0.30;;;18.00;77.60;;;;;;4399050;32;20339;-73
2023/05/27 08:58:47;;;;;;;0.40;0.40;;;17.90;79.80;;;;;;4398775;32;20468;-73
2023/05/27 09:01:16;;;;;;;0.30;0.30;;;18.10;81.70;;;;;;4397324;32;20106;-73
2023/05/27 09:03:42;;;;;;;0.30;0.30;;;18.50;78.10;;;;;;4399278;32;20078;-72
2023/05/27 09:06:07;;;;;;;0.57;0.57;;;18.70;75.10;;;;;;4399326;32;20544;-75
2023/05/27 09:08:33;;;;;;;0.30;0.30;;;18.90;74.40;;;;;;4400841;32;20103;-75
2023/05/27 09:10:58;;;;;;;0.20;0.20;;;19.00;75.40;;;;;;4401937;32;20431;-74
2023/05/27 09:13:27;;;;;;;0.30;0.30;;;18.90;75.00;;;;;;4395761;32;20090;-74
2023/05/27 09:15:59;;;;;;;0.20;0.20;;;18.90;75.50;;;;;;4392737;32;20058;-74
2023/05/27 09:18:26;;;;;;;0.30;0.30;;;19.10;77.80;;;;;;4395234;32;20077;-74
2023/05/27 09:20:55;;;;;;;0.30;0.30;;;19.30;76.60;;;;;;4390142;32;20162;-74
2023/05/27 09:23:20;;;;;;;0.30;0.30;;;19.20;72.60;;;;;;4392365;32;20098;-74
2023/05/27 09:25:46;;;;;;;0.25;0.25;;;19.30;75.30;;;;;;4393759;32;20061;-74
2023/05/27 09:28:19;;;;;;;0.20;0.20;;;19.20;75.00;;;;;;4392938;32;20089;-74
2023/05/27 09:30:44;;;;;;;0.65;0.65;;;19.20;75.10;;;;;;4391918;32;20078;-74
2023/05/27 09:33:10;;;;;;;0.65;0.60;;;19.40;76.40;;;;;;4392189;32;20090;-74
2023/05/27 09:35:39;;;;;;;0.30;0.30;;;19.60;74.20;;;;;;4393485;32;20073;-74
2023/05/27 09:38:06;;;;;;;0.30;0.30;;;19.50;71.90;;;;;;4393358;32;20141;-74
2023/05/27 09:40:31;;;;;;;0.32;0.32;;;19.40;72.40;;;;;;4393638;32;20125;-75
2023/05/27 09:42:57;;;;;;;0.30;0.30;;;19.50;71.80;;;;;;4391329;32;20572;-75
2023/05/27 09:45:22;;;;;;;0.50;0.50;;;19.50;71.20;;;;;;4392192;32;20105;-74
2023/05/27 09:47:51;;;;;;;1.55;0.75;;;19.40;71.70;;;;;;4392132;32;20081;-74
2023/05/27 09:50:17;;;;;;;0.40;0.40;;;19.40;71.80;;;;;;4391732;32;20078;-74
2023/05/27 09:52:44;;;;;;;1.05;0.62;;;19.60;71.10;;;;;;4391105;32;20720;-75
2023/05/27 09:55:12;;;;;;;0.30;0.30;;;19.90;73.90;;;;;;4392279;32;20078;-74
2023/05/27 09:57:39;;;;;;;0.43;0.43;;;20.20;72.20;;;;;;4391626;32;20148;-74
2023/05/27 10:00:11;;;;;;;0.20;0.20;;;20.40;71.40;;;;;;4392296;32;20513;-73
2023/05/27 10:02:38;;;;;;;0.20;0.20;;;20.70;70.10;;;;;;4391666;32;20133;-73
2023/05/27 10:05:07;;;;;;;1.00;0.30;;;20.60;70.90;;;;;;4392715;32;20073;-73
2023/05/27 10:07:36;;;;;;;0.30;0.30;;;20.90;70.70;;;;;;4391919;32;20090;-74
2023/05/27 10:10:02;;;;;;;0.20;0.20;;;20.80;69.60;;;;;;4392067;32;20066;-74
2023/05/27 10:12:28;;;;;;;3.62;0.50;;;20.70;70.60;;;;;;4392209;32;20170;-73
2023/05/27 10:14:55;;;;;;;1.27;0.98;;;21.00;71.10;;;;;;4402355;32;20157;-75
2023/05/27 10:17:21;;;;;;;0.30;0.30;;;21.30;72.40;;;;;;4400002;32;20458;-73
2023/05/27 10:19:56;;;;;;;3.15;1.15;;;21.80;69.70;;;;;;4399186;32;20078;-74
2023/05/27 10:22:22;;;;;;;0.20;0.20;;;21.60;68.20;;;;;;4396595;32;20157;-74
2023/05/27 10:24:50;;;;;;;0.50;0.50;;;21.60;69.30;;;;;;4399874;32;20085;-72
2023/05/27 10:27:16;;;;;;;0.20;0.20;;;21.70;68.00;;;;;;4399013;32;20093;-73
2023/05/27 10:29:41;;;;;;;0.20;0.20;;;21.30;67.30;;;;;;4401057;32;20090;-73
2023/05/27 10:32:07;;;;;;;3.05;0.88;;;21.40;66.80;;;;;;4397388;32;20099;-72
2023/05/27 10:34:37;;;;;;;0.20;0.20;;;21.70;67.00;;;;;;4400597;32;20127;-73
2023/05/27 10:37:03;;;;;;;0.30;0.30;;;22.00;66.70;;;;;;4400652;32;20198;-74
2023/05/27 10:39:28;;;;;;;7.45;0.75;;;22.20;67.50;;;;;;4399968;32;20516;-74
2023/05/27 10:41:56;;;;;;;1.55;0.77;;;22.40;67.90;;;;;;4397622;32;20109;-73
2023/05/27 10:44:28;;;;;;;0.30;0.30;;;22.60;66.70;;;;;;4401754;32;20086;-74
2023/05/27 10:47:01;;;;;;;0.20;0.20;;;22.90;65.70;;;;;;4398389;32;20086;-72
2023/05/27 10:49:35;;;;;;;0.22;0.22;;;22.70;67.00;;;;;;4399263;32;20085;-75
2023/05/27 10:52:12;;;;;;;12.63;0.55;;;22.70;65.50;;;;;;4397721;32;20086;-75
2023/05/27 10:54:40;;;;;;;0.60;0.50;;;22.90;65.70;;;;;;4398087;32;20117;-73
2023/05/27 10:57:07;;;;;;;0.20;0.20;;;23.00;63.10;;;;;;4398455;32;20069;-72
2023/05/27 10:59:54;;;;;;;0.20;0.20;;;22.90;63.70;;;;;;4398862;32;20069;-74
2023/05/27 11:02:21;;;;;;;0.20;0.20;;;23.00;64.10;;;;;;4386135;32;20129;-75
2023/05/27 11:04:50;;;;;;;0.30;0.30;;;23.30;65.00;;;;;;4396863;32;20089;-74
2023/05/27 11:07:18;;;;;;;0.68;0.65;;;23.70;62.30;;;;;;4395974;32;20502;-72
2023/05/27 11:09:47;;;;;;;0.17;0.17;;;23.90;64.30;;;;;;4399295;32;20073;-73
2023/05/27 11:12:18;;;;;;;0.20;0.20;;;24.20;61.80;;;;;;4398327;32;20526;-72
2023/05/27 11:14:50;;;;;;;0.10;0.10;;;24.10;60.40;;;;;;4400049;32;20066;-73
2023/05/27 11:17:16;;;;;;;0.98;0.35;;;23.90;60.80;;;;;;4395974;32;20203;-75
2023/05/27 11:19:42;;;;;;;0.20;0.20;;;24.10;62.40;;;;;;4398258;32;20524;-73
2023/05/27 11:22:09;;;;;;;0.20;0.20;;;24.10;60.90;;;;;;4395219;32;20070;-73
2023/05/27 11:24:36;;;;;;;0.20;0.20;;;24.20;61.50;;;;;;4397356;32;20102;-72
2023/05/27 11:27:10;;;;;;;0.20;0.20;;;24.40;61.80;;;;;;4396326;32;20073;-73
2023/05/27 11:29:37;;;;;;;0.20;0.20;;;24.60;59.90;;;;;;4395924;32;20177;-74
2023/05/27 11:32:05;;;;;;;0.10;0.10;;;24.60;59.70;;;;;;4396879;32;20101;-73
2023/05/27 11:34:33;;;;;;;0.35;0.05;;;25.20;60.40;;;;;;4397060;32;20201;-75
2023/05/27 11:37:03;;;;;;;0.62;0.28;;;25.40;59.70;;;;;;4397780;32;20141;-72
2023/05/27 11:39:29;;;;;;;0.20;0.20;;;25.30;58.30;;;;;;4400158;32;20853;-74
2023/05/27 11:41:55;;;;;;;0.10;0.10;;;25.30;57.50;;;;;;4398258;32;20126;-73
2023/05/27 11:44:22;;;;;;;0.10;0.10;;;25.30;58.00;;;;;;4397764;32;20524;-73
2023/05/27 11:46:48;;;;;;;0.10;0.10;;;25.30;57.50;;;;;;4396953;32;99397;-73
2023/05/27 11:49:17;;;;;;;0.10;0.10;;;25.40;57.70;;;;;;4395904;32;20094;-73
2023/05/27 11:51:45;;;;;;;0.10;0.10;;;25.10;56.90;;;;;;4397962;32;20129;-73
2023/05/27 11:54:28;;;;;;;0.25;0.25;;;25.10;57.40;;;;;;4394127;32;20065;-74
2023/05/27 11:56:56;;;;;;;0.00;0.00;;;25.40;57.40;;;;;;4396587;32;20118;-76
2023/05/27 11:59:22;;;;;;;1.00;0.13;;;25.90;57.90;;;;;;4395981;32;20066;-75
2023/05/27 12:01:49;;;;;;;0.05;0.05;;;26.30;58.20;;;;;;4396814;32;20089;-74
2023/05/27 12:04:15;;;;;;;0.17;0.17;;;26.50;58.20;;;;;;4397266;32;20062;-74
2023/05/27 12:06:41;;;;;;;0.45;0.32;;;27.00;56.60;;;;;;4397005;32;20095;-75
2023/05/27 12:09:08;;;;;;;0.00;0.00;;;27.10;56.60;;;;;;4396976;32;20082;-74
2023/05/27 12:11:34;;;;;;;0.10;0.10;;;26.90;55.20;;;;;;4397748;32;20520;-72
2023/05/27 12:14:00;;;;;;;0.22;0.20;;;27.20;55.60;;;;;;4395277;32;20093;-72
2023/05/27 12:16:25;;;;;;;0.00;0.00;;;27.30;54.80;;;;;;4399731;32;20125;-73
2023/05/27 12:18:51;;;;;;;0.20;0.20;;;26.90;54.80;;;;;;4398320;32;20264;-72
2023/05/27 12:21:17;;;;;;;0.00;0.00;;;26.90;53.90;;;;;;4401945;32;20081;-75
2023/05/27 12:23:43;;;;;;;0.52;0.10;;;27.20;55.50;;;;;;4399537;32;20392;-74
2023/05/27 12:26:10;;;;;;;0.00;0.00;;;27.30;56.10;;;;;;4397166;32;20126;-73
2023/05/27 12:28:36;;;;;;;0.28;0.20;;;27.20;55.70;;;;;;4398979;32;20573;-73
2023/05/27 12:31:02;;;;;;;0.10;0.10;;;27.40;55.10;;;;;;4399410;32;20188;-73
2023/05/27 12:33:28;;;;;;;0.47;0.30;;;27.30;55.10;;;;;;4399446;32;20088;-74
2023/05/27 12:35:53;;;;;;;0.43;0.30;;;27.70;54.30;;;;;;4401260;32;20081;-72
2023/05/27 12:38:19;;;;;;;0.10;0.10;;;27.70;54.00;;;;;;4400485;32;20095;-73
2023/05/27 12:40:44;;;;;;;0.03;0.03;;;27.70;55.00;;;;;;4399519;32;20073;-72